sensor_id;sensor_type;location;lat;lon;timestamp;P1;durP1;ratioP1;P2;durP2;ratioP2
22786;SDS011;63134;52.020;4.714;2024-02-21T00:02:11;13.57;;;3.50;;
22786;SDS011;63134;52.020;4.714;2024-02-21T00:04:56;19.27;;;5.28;;
22786;SDS011;63134;52.020;4.714;2024-02-21T00:07:41;16.27;;;4.25;;
22786;SDS011;63134;52.020;4.714;2024-02-21T00:10:28;14.18;;;4.22;;
22786;SDS011;63134;52.020;4.714;2024-02-21T00:13:14;16.40;;;4.25;;
22786;SDS011;63134;52.020;4.714;2024-02-21T00:16:00;18.23;;;4.25;;
22786;SDS011;63134;52.020;4.714;2024-02-21T00:18:46;18.55;;;4.18;;
22786;SDS011;63134;52.020;4.714;2024-02-21T00:21:31;17.25;;;4.30;;
22786;SDS011;63134;52.020;4.714;2024-02-21T00:24:17;16.67;;;3.85;;
22786;SDS011;63134;52.020;4.714;2024-02-21T00:27:03;12.38;;;3.25;;
22786;SDS011;63134;52.020;4.714;2024-02-21T00:29:48;14.00;;;3.92;;
22786;SDS011;63134;52.020;4.714;2024-02-21T00:32:34;15.07;;;3.88;;
22786;SDS011;63134;52.020;4.714;2024-02-21T00:35:19;16.40;;;4.07;;
22786;SDS011;63134;52.020;4.714;2024-02-21T00:38:05;18.73;;;3.70;;
22786;SDS011;63134;52.020;4.714;2024-02-21T00:40:50;12.23;;;3.67;;
22786;SDS011;63134;52.020;4.714;2024-02-21T00:43:36;15.60;;;3.78;;
22786;SDS011;63134;52.020;4.714;2024-02-21T00:46:21;15.00;;;3.15;;
22786;SDS011;63134;52.020;4.714;2024-02-21T00:49:07;15.40;;;3.70;;
22786;SDS011;63134;52.020;4.714;2024-02-21T00:51:52;10.45;;;3.17;;
22786;SDS011;63134;52.020;4.714;2024-02-21T00:54:38;16.83;;;4.38;;
22786;SDS011;63134;52.020;4.714;2024-02-21T00:57:37;13.55;;;4.07;;
22786;SDS011;63134;52.020;4.714;2024-02-21T01:00:22;13.02;;;4.05;;
22786;SDS011;63134;52.020;4.714;2024-02-21T01:03:08;14.40;;;3.30;;
22786;SDS011;63134;52.020;4.714;2024-02-21T01:05:53;13.05;;;4.30;;
22786;SDS011;63134;52.020;4.714;2024-02-21T01:08:38;19.33;;;4.93;;
22786;SDS011;63134;52.020;4.714;2024-02-21T01:11:24;17.95;;;4.47;;
22786;SDS011;63134;52.020;4.714;2024-02-21T01:14:10;16.02;;;5.00;;
22786;SDS011;63134;52.020;4.714;2024-02-21T01:16:56;17.05;;;4.65;;
22786;SDS011;63134;52.020;4.714;2024-02-21T01:19:42;13.05;;;4.10;;
22786;SDS011;63134;52.020;4.714;2024-02-21T01:22:27;14.70;;;5.10;;
22786;SDS011;63134;52.020;4.714;2024-02-21T01:25:14;21.23;;;4.93;;
22786;SDS011;63134;52.020;4.714;2024-02-21T01:27:59;17.08;;;4.63;;
22786;SDS011;63134;52.020;4.714;2024-02-21T01:30:45;20.73;;;5.18;;
22786;SDS011;63134;52.020;4.714;2024-02-21T01:33:30;22.85;;;4.57;;
22786;SDS011;63134;52.020;4.714;2024-02-21T01:36:20;17.85;;;4.82;;
22786;SDS011;63134;52.020;4.714;2024-02-21T01:39:05;17.45;;;3.83;;
22786;SDS011;63134;52.020;4.714;2024-02-21T01:41:50;15.18;;;3.90;;
22786;SDS011;63134;52.020;4.714;2024-02-21T01:44:36;16.95;;;4.60;;
22786;SDS011;63134;52.020;4.714;2024-02-21T01:47:23;14.65;;;4.50;;
22786;SDS011;63134;52.020;4.714;2024-02-21T01:50:09;15.55;;;4.50;;
22786;SDS011;63134;52.020;4.714;2024-02-21T01:52:55;11.77;;;3.40;;
22786;SDS011;63134;52.020;4.714;2024-02-21T01:55:41;15.48;;;4.60;;
22786;SDS011;63134;52.020;4.714;2024-02-21T01:58:28;14.95;;;4.05;;
22786;SDS011;63134;52.020;4.714;2024-02-21T02:01:15;15.98;;;4.32;;
22786;SDS011;63134;52.020;4.714;2024-02-21T02:04:06;10.93;;;4.32;;
22786;SDS011;63134;52.020;4.714;2024-02-21T02:06:53;14.38;;;3.95;;
22786;SDS011;63134;52.020;4.714;2024-02-21T02:09:40;13.30;;;4.57;;
22786;SDS011;63134;52.020;4.714;2024-02-21T02:12:26;12.57;;;4.22;;
22786;SDS011;63134;52.020;4.714;2024-02-21T02:15:12;11.95;;;3.85;;
22786;SDS011;63134;52.020;4.714;2024-02-21T02:17:57;12.98;;;4.70;;
22786;SDS011;63134;52.020;4.714;2024-02-21T02:20:46;12.10;;;4.28;;
22786;SDS011;63134;52.020;4.714;2024-02-21T02:23:32;14.55;;;3.92;;
22786;SDS011;63134;52.020;4.714;2024-02-21T02:26:18;13.40;;;5.20;;
22786;SDS011;63134;52.020;4.714;2024-02-21T02:29:04;13.95;;;4.55;;
22786;SDS011;63134;52.020;4.714;2024-02-21T02:31:50;16.33;;;4.85;;
22786;SDS011;63134;52.020;4.714;2024-02-21T02:34:35;14.32;;;5.10;;
22786;SDS011;63134;52.020;4.714;2024-02-21T02:37:21;14.98;;;5.43;;
22786;SDS011;63134;52.020;4.714;2024-02-21T02:40:07;18.40;;;5.28;;
22786;SDS011;63134;52.020;4.714;2024-02-21T02:42:52;16.02;;;5.43;;
22786;SDS011;63134;52.020;4.714;2024-02-21T02:45:40;12.30;;;4.78;;
22786;SDS011;63134;52.020;4.714;2024-02-21T02:48:25;14.75;;;4.70;;
22786;SDS011;63134;52.020;4.714;2024-02-21T02:51:11;13.15;;;4.72;;
22786;SDS011;63134;52.020;4.714;2024-02-21T02:53:56;15.57;;;5.07;;
22786;SDS011;63134;52.020;4.714;2024-02-21T02:56:42;16.50;;;4.43;;
22786;SDS011;63134;52.020;4.714;2024-02-21T02:59:28;14.63;;;5.30;;
22786;SDS011;63134;52.020;4.714;2024-02-21T03:02:14;12.55;;;4.80;;
22786;SDS011;63134;52.020;4.714;2024-02-21T03:04:59;14.95;;;5.25;;
22786;SDS011;63134;52.020;4.714;2024-02-21T03:07:45;12.98;;;5.03;;
22786;SDS011;63134;52.020;4.714;2024-02-21T03:10:32;11.38;;;4.65;;
22786;SDS011;63134;52.020;4.714;2024-02-21T03:13:17;11.55;;;4.68;;
22786;SDS011;63134;52.020;4.714;2024-02-21T03:16:04;12.88;;;5.03;;
22786;SDS011;63134;52.020;4.714;2024-02-21T03:18:50;18.35;;;5.40;;
22786;SDS011;63134;52.020;4.714;2024-02-21T03:21:36;20.38;;;5.45;;
22786;SDS011;63134;52.020;4.714;2024-02-21T03:24:21;12.05;;;5.10;;
22786;SDS011;63134;52.020;4.714;2024-02-21T03:27:07;13.07;;;4.90;;
22786;SDS011;63134;52.020;4.714;2024-02-21T03:29:53;9.95;;;4.60;;
22786;SDS011;63134;52.020;4.714;2024-02-21T03:32:38;14.00;;;5.20;;
22786;SDS011;63134;52.020;4.714;2024-02-21T03:35:24;13.80;;;5.38;;
22786;SDS011;63134;52.020;4.714;2024-02-21T03:38:11;10.18;;;5.05;;
22786;SDS011;63134;52.020;4.714;2024-02-21T03:40:56;11.98;;;5.20;;
22786;SDS011;63134;52.020;4.714;2024-02-21T03:43:42;11.80;;;5.05;;
22786;SDS011;63134;52.020;4.714;2024-02-21T03:46:28;16.38;;;6.13;;
22786;SDS011;63134;52.020;4.714;2024-02-21T03:49:13;15.57;;;6.75;;
22786;SDS011;63134;52.020;4.714;2024-02-21T03:51:59;15.73;;;6.60;;
22786;SDS011;63134;52.020;4.714;2024-02-21T03:54:44;20.35;;;6.40;;
22786;SDS011;63134;52.020;4.714;2024-02-21T03:57:30;14.35;;;6.80;;
22786;SDS011;63134;52.020;4.714;2024-02-21T04:00:15;11.55;;;6.20;;
22786;SDS011;63134;52.020;4.714;2024-02-21T04:03:01;19.20;;;7.82;;
22786;SDS011;63134;52.020;4.714;2024-02-21T04:05:47;11.82;;;6.20;;
22786;SDS011;63134;52.020;4.714;2024-02-21T04:08:33;11.68;;;6.20;;
22786;SDS011;63134;52.020;4.714;2024-02-21T04:11:18;11.15;;;6.40;;
22786;SDS011;63134;52.020;4.714;2024-02-21T04:14:04;18.38;;;7.43;;
22786;SDS011;63134;52.020;4.714;2024-02-21T04:16:49;12.93;;;6.93;;
22786;SDS011;63134;52.020;4.714;2024-02-21T04:19:35;11.60;;;6.40;;
22786;SDS011;63134;52.020;4.714;2024-02-21T04:22:21;12.48;;;6.68;;
22786;SDS011;63134;52.020;4.714;2024-02-21T04:25:06;14.38;;;6.75;;
22786;SDS011;63134;52.020;4.714;2024-02-21T04:27:52;13.10;;;6.88;;
22786;SDS011;63134;52.020;4.714;2024-02-21T04:30:37;12.02;;;6.82;;
22786;SDS011;63134;52.020;4.714;2024-02-21T04:33:23;14.27;;;7.20;;
22786;SDS011;63134;52.020;4.714;2024-02-21T04:36:08;13.73;;;7.40;;
22786;SDS011;63134;52.020;4.714;2024-02-21T04:38:54;16.92;;;8.45;;
22786;SDS011;63134;52.020;4.714;2024-02-21T04:41:39;12.93;;;6.65;;
22786;SDS011;63134;52.020;4.714;2024-02-21T04:44:25;12.85;;;6.60;;
22786;SDS011;63134;52.020;4.714;2024-02-21T04:47:10;15.35;;;8.10;;
22786;SDS011;63134;52.020;4.714;2024-02-21T04:49:56;11.63;;;6.50;;
22786;SDS011;63134;52.020;4.714;2024-02-21T04:52:41;14.70;;;7.07;;
22786;SDS011;63134;52.020;4.714;2024-02-21T04:55:28;12.30;;;6.15;;
22786;SDS011;63134;52.020;4.714;2024-02-21T04:58:13;9.65;;;6.22;;
22786;SDS011;63134;52.020;4.714;2024-02-21T05:00:59;13.38;;;6.18;;
22786;SDS011;63134;52.020;4.714;2024-02-21T05:03:44;12.18;;;6.82;;
22786;SDS011;63134;52.020;4.714;2024-02-21T05:06:30;14.57;;;6.95;;
22786;SDS011;63134;52.020;4.714;2024-02-21T05:09:15;12.55;;;6.75;;
22786;SDS011;63134;52.020;4.714;2024-02-21T05:12:01;14.18;;;7.18;;
22786;SDS011;63134;52.020;4.714;2024-02-21T05:14:47;11.68;;;7.00;;
22786;SDS011;63134;52.020;4.714;2024-02-21T05:17:32;10.82;;;6.35;;
22786;SDS011;63134;52.020;4.714;2024-02-21T05:20:18;12.02;;;7.45;;
22786;SDS011;63134;52.020;4.714;2024-02-21T05:23:04;10.20;;;7.15;;
22786;SDS011;63134;52.020;4.714;2024-02-21T05:25:49;11.20;;;7.40;;
22786;SDS011;63134;52.020;4.714;2024-02-21T05:28:35;9.38;;;7.38;;
22786;SDS011;63134;52.020;4.714;2024-02-21T05:31:20;12.30;;;7.28;;
22786;SDS011;63134;52.020;4.714;2024-02-21T05:34:06;11.93;;;8.13;;
22786;SDS011;63134;52.020;4.714;2024-02-21T05:36:53;13.07;;;7.47;;
22786;SDS011;63134;52.020;4.714;2024-02-21T05:39:39;13.35;;;8.40;;
22786;SDS011;63134;52.020;4.714;2024-02-21T05:42:24;14.63;;;8.90;;
22786;SDS011;63134;52.020;4.714;2024-02-21T05:45:10;13.15;;;8.85;;
22786;SDS011;63134;52.020;4.714;2024-02-21T05:47:55;18.00;;;10.05;;
22786;SDS011;63134;52.020;4.714;2024-02-21T05:50:42;15.60;;;9.98;;
22786;SDS011;63134;52.020;4.714;2024-02-21T05:53:28;13.95;;;9.45;;
22786;SDS011;63134;52.020;4.714;2024-02-21T05:56:14;21.20;;;11.43;;
22786;SDS011;63134;52.020;4.714;2024-02-21T05:58:59;18.25;;;10.90;;
22786;SDS011;63134;52.020;4.714;2024-02-21T06:01:45;18.13;;;11.20;;
22786;SDS011;63134;52.020;4.714;2024-02-21T06:04:35;18.42;;;10.88;;
22786;SDS011;63134;52.020;4.714;2024-02-21T06:07:20;20.17;;;11.30;;
22786;SDS011;63134;52.020;4.714;2024-02-21T06:10:06;15.30;;;10.38;;
22786;SDS011;63134;52.020;4.714;2024-02-21T06:12:52;18.52;;;11.98;;
22786;SDS011;63134;52.020;4.714;2024-02-21T06:15:37;25.40;;;11.68;;
22786;SDS011;63134;52.020;4.714;2024-02-21T06:18:23;17.95;;;9.80;;
22786;SDS011;63134;52.020;4.714;2024-02-21T06:21:08;15.07;;;10.63;;
22786;SDS011;63134;52.020;4.714;2024-02-21T06:23:54;17.58;;;10.82;;
22786;SDS011;63134;52.020;4.714;2024-02-21T06:26:40;19.42;;;10.68;;
22786;SDS011;63134;52.020;4.714;2024-02-21T06:29:25;13.73;;;9.70;;
22786;SDS011;63134;52.020;4.714;2024-02-21T06:32:11;19.90;;;10.48;;
22786;SDS011;63134;52.020;4.714;2024-02-21T06:34:57;18.63;;;10.38;;
22786;SDS011;63134;52.020;4.714;2024-02-21T06:37:42;19.17;;;11.75;;
22786;SDS011;63134;52.020;4.714;2024-02-21T06:40:30;22.17;;;11.00;;
22786;SDS011;63134;52.020;4.714;2024-02-21T06:43:23;17.80;;;10.57;;
22786;SDS011;63134;52.020;4.714;2024-02-21T06:46:08;21.85;;;11.13;;
22786;SDS011;63134;52.020;4.714;2024-02-21T06:48:53;22.10;;;10.85;;
22786;SDS011;63134;52.020;4.714;2024-02-21T06:51:42;29.92;;;11.43;;
22786;SDS011;63134;52.020;4.714;2024-02-21T06:54:28;20.88;;;10.57;;
22786;SDS011;63134;52.020;4.714;2024-02-21T06:57:13;18.70;;;9.90;;
22786;SDS011;63134;52.020;4.714;2024-02-21T07:00:00;18.55;;;9.73;;
22786;SDS011;63134;52.020;4.714;2024-02-21T07:02:45;20.85;;;10.77;;
22786;SDS011;63134;52.020;4.714;2024-02-21T07:05:31;22.92;;;11.82;;
22786;SDS011;63134;52.020;4.714;2024-02-21T07:08:16;24.67;;;11.55;;
22786;SDS011;63134;52.020;4.714;2024-02-21T07:11:02;24.27;;;11.15;;
22786;SDS011;63134;52.020;4.714;2024-02-21T07:13:47;24.58;;;11.63;;
22786;SDS011;63134;52.020;4.714;2024-02-21T07:16:33;23.13;;;10.88;;
22786;SDS011;63134;52.020;4.714;2024-02-21T07:19:18;23.65;;;10.80;;
22786;SDS011;63134;52.020;4.714;2024-02-21T07:22:04;17.60;;;10.40;;
22786;SDS011;63134;52.020;4.714;2024-02-21T07:24:50;23.25;;;11.43;;
22786;SDS011;63134;52.020;4.714;2024-02-21T07:27:36;28.35;;;12.70;;
22786;SDS011;63134;52.020;4.714;2024-02-21T07:30:22;22.08;;;11.68;;
22786;SDS011;63134;52.020;4.714;2024-02-21T07:33:07;23.40;;;12.15;;
22786;SDS011;63134;52.020;4.714;2024-02-21T07:35:53;21.05;;;12.02;;
22786;SDS011;63134;52.020;4.714;2024-02-21T07:38:38;21.10;;;11.80;;
22786;SDS011;63134;52.020;4.714;2024-02-21T07:41:24;24.17;;;13.45;;
22786;SDS011;63134;52.020;4.714;2024-02-21T07:44:11;22.38;;;13.77;;
22786;SDS011;63134;52.020;4.714;2024-02-21T07:46:56;32.53;;;14.27;;
22786;SDS011;63134;52.020;4.714;2024-02-21T07:49:45;22.90;;;13.85;;
22786;SDS011;63134;52.020;4.714;2024-02-21T07:52:31;29.83;;;13.50;;
22786;SDS011;63134;52.020;4.714;2024-02-21T07:55:16;21.23;;;14.00;;
22786;SDS011;63134;52.020;4.714;2024-02-21T07:58:02;24.13;;;14.20;;
22786;SDS011;63134;52.020;4.714;2024-02-21T08:00:48;25.52;;;14.43;;
22786;SDS011;63134;52.020;4.714;2024-02-21T08:03:33;22.70;;;13.63;;
22786;SDS011;63134;52.020;4.714;2024-02-21T08:06:19;23.35;;;13.10;;
22786;SDS011;63134;52.020;4.714;2024-02-21T08:09:05;21.63;;;13.10;;
22786;SDS011;63134;52.020;4.714;2024-02-21T08:11:51;22.33;;;12.18;;
22786;SDS011;63134;52.020;4.714;2024-02-21T08:14:36;22.95;;;12.50;;
22786;SDS011;63134;52.020;4.714;2024-02-21T08:17:22;24.70;;;13.07;;
22786;SDS011;63134;52.020;4.714;2024-02-21T08:20:07;26.70;;;13.02;;
22786;SDS011;63134;52.020;4.714;2024-02-21T08:22:53;20.85;;;12.25;;
22786;SDS011;63134;52.020;4.714;2024-02-21T08:25:39;20.75;;;13.15;;
22786;SDS011;63134;52.020;4.714;2024-02-21T08:28:24;21.13;;;12.38;;
22786;SDS011;63134;52.020;4.714;2024-02-21T08:31:18;20.55;;;11.85;;
22786;SDS011;63134;52.020;4.714;2024-02-21T08:34:08;21.58;;;13.05;;
22786;SDS011;63134;52.020;4.714;2024-02-21T08:36:53;18.90;;;11.98;;
22786;SDS011;63134;52.020;4.714;2024-02-21T08:39:39;19.65;;;11.57;;
22786;SDS011;63134;52.020;4.714;2024-02-21T08:42:24;21.55;;;12.75;;
22786;SDS011;63134;52.020;4.714;2024-02-21T08:45:10;17.38;;;10.48;;
22786;SDS011;63134;52.020;4.714;2024-02-21T08:47:55;21.65;;;12.95;;
22786;SDS011;63134;52.020;4.714;2024-02-21T08:50:41;18.92;;;12.38;;
22786;SDS011;63134;52.020;4.714;2024-02-21T08:53:27;18.35;;;12.45;;
22786;SDS011;63134;52.020;4.714;2024-02-21T08:56:12;21.05;;;12.43;;
22786;SDS011;63134;52.020;4.714;2024-02-21T08:58:58;18.48;;;11.98;;
22786;SDS011;63134;52.020;4.714;2024-02-21T09:01:43;18.75;;;12.45;;
22786;SDS011;63134;52.020;4.714;2024-02-21T09:04:29;22.70;;;13.48;;
22786;SDS011;63134;52.020;4.714;2024-02-21T09:07:16;18.60;;;12.48;;
22786;SDS011;63134;52.020;4.714;2024-02-21T09:10:01;20.60;;;14.40;;
22786;SDS011;63134;52.020;4.714;2024-02-21T09:12:47;21.52;;;12.90;;
22786;SDS011;63134;52.020;4.714;2024-02-21T09:15:33;23.45;;;13.50;;
22786;SDS011;63134;52.020;4.714;2024-02-21T09:18:19;21.05;;;13.18;;
22786;SDS011;63134;52.020;4.714;2024-02-21T09:21:04;17.52;;;12.80;;
22786;SDS011;63134;52.020;4.714;2024-02-21T09:23:50;22.63;;;13.05;;
22786;SDS011;63134;52.020;4.714;2024-02-21T09:26:35;19.80;;;12.70;;
22786;SDS011;63134;52.020;4.714;2024-02-21T09:29:21;19.50;;;13.38;;
22786;SDS011;63134;52.020;4.714;2024-02-21T09:32:11;18.67;;;12.70;;
22786;SDS011;63134;52.020;4.714;2024-02-21T09:34:57;19.67;;;11.93;;
22786;SDS011;63134;52.020;4.714;2024-02-21T09:37:47;22.23;;;11.93;;
22786;SDS011;63134;52.020;4.714;2024-02-21T09:40:32;17.00;;;10.85;;
22786;SDS011;63134;52.020;4.714;2024-02-21T09:43:18;15.68;;;11.70;;
22786;SDS011;63134;52.020;4.714;2024-02-21T09:46:06;17.65;;;11.30;;
22786;SDS011;63134;52.020;4.714;2024-02-21T09:51:51;17.52;;;10.27;;
22786;SDS011;63134;52.020;4.714;2024-02-21T09:54:38;15.60;;;10.35;;
22786;SDS011;63134;52.020;4.714;2024-02-21T09:57:27;14.45;;;9.98;;
22786;SDS011;63134;52.020;4.714;2024-02-21T10:00:13;18.45;;;10.07;;
22786;SDS011;63134;52.020;4.714;2024-02-21T10:03:10;13.10;;;9.40;;
22786;SDS011;63134;52.020;4.714;2024-02-21T10:05:56;14.52;;;9.32;;
22786;SDS011;63134;52.020;4.714;2024-02-21T10:08:43;17.38;;;10.07;;
22786;SDS011;63134;52.020;4.714;2024-02-21T10:11:36;15.98;;;9.40;;
22786;SDS011;63134;52.020;4.714;2024-02-21T10:14:22;12.95;;;9.65;;
22786;SDS011;63134;52.020;4.714;2024-02-21T10:17:08;13.68;;;8.98;;
22786;SDS011;63134;52.020;4.714;2024-02-21T10:20:06;12.50;;;8.70;;
22786;SDS011;63134;52.020;4.714;2024-02-21T10:23:03;13.45;;;8.55;;
22786;SDS011;63134;52.020;4.714;2024-02-21T10:25:53;13.10;;;8.63;;
22786;SDS011;63134;52.020;4.714;2024-02-21T10:28:39;12.15;;;8.32;;
22786;SDS011;63134;52.020;4.714;2024-02-21T10:31:29;12.32;;;8.57;;
22786;SDS011;63134;52.020;4.714;2024-02-21T10:34:16;12.25;;;8.52;;
22786;SDS011;63134;52.020;4.714;2024-02-21T10:37:03;12.65;;;8.77;;
22786;SDS011;63134;52.020;4.714;2024-02-21T10:39:50;12.52;;;9.95;;
22786;SDS011;63134;52.020;4.714;2024-02-21T10:42:36;13.82;;;9.50;;
22786;SDS011;63134;52.020;4.714;2024-02-21T10:45:31;14.27;;;10.57;;
22786;SDS011;63134;52.020;4.714;2024-02-21T10:48:22;15.73;;;10.18;;
22786;SDS011;63134;52.020;4.714;2024-02-21T10:51:14;11.83;;;10.10;;
22786;SDS011;63134;52.020;4.714;2024-02-21T10:57:19;15.67;;;10.30;;
22786;SDS011;63134;52.020;4.714;2024-02-21T11:00:07;15.55;;;10.48;;
22786;SDS011;63134;52.020;4.714;2024-02-21T11:02:57;12.57;;;10.30;;
22786;SDS011;63134;52.020;4.714;2024-02-21T11:05:43;13.40;;;9.77;;
22786;SDS011;63134;52.020;4.714;2024-02-21T11:08:30;14.65;;;10.18;;
22786;SDS011;63134;52.020;4.714;2024-02-21T11:11:15;11.43;;;8.88;;
22786;SDS011;63134;52.020;4.714;2024-02-21T11:14:18;11.52;;;9.52;;
22786;SDS011;63134;52.020;4.714;2024-02-21T11:17:18;11.50;;;8.13;;
22786;SDS011;63134;52.020;4.714;2024-02-21T11:20:12;13.60;;;8.23;;
22786;SDS011;63134;52.020;4.714;2024-02-21T11:22:58;9.95;;;7.50;;
22786;SDS011;63134;52.020;4.714;2024-02-21T11:25:43;9.65;;;8.07;;
22786;SDS011;63134;52.020;4.714;2024-02-21T11:28:29;11.02;;;8.30;;
22786;SDS011;63134;52.020;4.714;2024-02-21T11:31:14;11.63;;;8.95;;
22786;SDS011;63134;52.020;4.714;2024-02-21T11:34:00;12.07;;;9.77;;
22786;SDS011;63134;52.020;4.714;2024-02-21T11:36:49;12.40;;;9.18;;
22786;SDS011;63134;52.020;4.714;2024-02-21T11:39:37;12.32;;;9.43;;
22786;SDS011;63134;52.020;4.714;2024-02-21T11:42:27;14.50;;;9.80;;
22786;SDS011;63134;52.020;4.714;2024-02-21T11:45:14;14.63;;;8.98;;
22786;SDS011;63134;52.020;4.714;2024-02-21T11:48:00;11.60;;;8.55;;
22786;SDS011;63134;52.020;4.714;2024-02-21T11:50:55;10.52;;;7.75;;
22786;SDS011;63134;52.020;4.714;2024-02-21T11:53:41;11.15;;;7.13;;
22786;SDS011;63134;52.020;4.714;2024-02-21T11:56:41;21.02;;;7.57;;
22786;SDS011;63134;52.020;4.714;2024-02-21T11:59:30;13.75;;;8.30;;
22786;SDS011;63134;52.020;4.714;2024-02-21T12:02:16;10.98;;;7.32;;
22786;SDS011;63134;52.020;4.714;2024-02-21T12:05:03;9.00;;;6.38;;
22786;SDS011;63134;52.020;4.714;2024-02-21T12:07:51;12.40;;;7.25;;
22786;SDS011;63134;52.020;4.714;2024-02-21T12:10:36;12.20;;;7.53;;
22786;SDS011;63134;52.020;4.714;2024-02-21T12:13:22;10.52;;;7.05;;
22786;SDS011;63134;52.020;4.714;2024-02-21T12:16:08;12.23;;;6.85;;
22786;SDS011;63134;52.020;4.714;2024-02-21T12:18:54;9.20;;;6.50;;
22786;SDS011;63134;52.020;4.714;2024-02-21T12:21:40;10.88;;;6.75;;
22786;SDS011;63134;52.020;4.714;2024-02-21T12:24:26;7.65;;;6.07;;
22786;SDS011;63134;52.020;4.714;2024-02-21T12:27:12;9.60;;;6.50;;
22786;SDS011;63134;52.020;4.714;2024-02-21T12:29:58;10.60;;;7.15;;
22786;SDS011;63134;52.020;4.714;2024-02-21T12:32:44;9.60;;;6.65;;
22786;SDS011;63134;52.020;4.714;2024-02-21T12:35:29;12.82;;;6.97;;
22786;SDS011;63134;52.020;4.714;2024-02-21T12:38:17;8.70;;;6.32;;
22786;SDS011;63134;52.020;4.714;2024-02-21T12:41:04;11.02;;;5.82;;
22786;SDS011;63134;52.020;4.714;2024-02-21T12:43:50;10.68;;;6.25;;
22786;SDS011;63134;52.020;4.714;2024-02-21T12:46:35;9.65;;;6.55;;
22786;SDS011;63134;52.020;4.714;2024-02-21T12:49:21;8.63;;;6.32;;
22786;SDS011;63134;52.020;4.714;2024-02-21T12:52:07;10.68;;;6.43;;
22786;SDS011;63134;52.020;4.714;2024-02-21T12:54:53;9.15;;;5.70;;
22786;SDS011;63134;52.020;4.714;2024-02-21T12:57:41;9.18;;;5.18;;
22786;SDS011;63134;52.020;4.714;2024-02-21T13:00:27;7.45;;;4.95;;
22786;SDS011;63134;52.020;4.714;2024-02-21T13:03:12;6.63;;;4.78;;
22786;SDS011;63134;52.020;4.714;2024-02-21T13:05:59;8.27;;;4.97;;
22786;SDS011;63134;52.020;4.714;2024-02-21T13:08:44;8.25;;;4.60;;
22786;SDS011;63134;52.020;4.714;2024-02-21T13:11:31;8.00;;;5.20;;
22786;SDS011;63134;52.020;4.714;2024-02-21T13:14:17;12.10;;;5.68;;
22786;SDS011;63134;52.020;4.714;2024-02-21T13:17:03;9.25;;;4.75;;
22786;SDS011;63134;52.020;4.714;2024-02-21T13:19:48;6.50;;;4.63;;
22786;SDS011;63134;52.020;4.714;2024-02-21T13:22:34;12.98;;;5.10;;
22786;SDS011;63134;52.020;4.714;2024-02-21T13:25:20;10.85;;;4.90;;
22786;SDS011;63134;52.020;4.714;2024-02-21T13:28:06;7.57;;;4.70;;
22786;SDS011;63134;52.020;4.714;2024-02-21T13:30:52;11.05;;;5.38;;
22786;SDS011;63134;52.020;4.714;2024-02-21T13:33:37;7.43;;;4.53;;
22786;SDS011;63134;52.020;4.714;2024-02-21T13:36:23;9.85;;;4.43;;
22786;SDS011;63134;52.020;4.714;2024-02-21T13:39:09;12.10;;;5.75;;
22786;SDS011;63134;52.020;4.714;2024-02-21T13:41:57;10.75;;;5.10;;
22786;SDS011;63134;52.020;4.714;2024-02-21T13:44:44;8.75;;;4.72;;
22786;SDS011;63134;52.020;4.714;2024-02-21T13:47:29;20.48;;;4.72;;
22786;SDS011;63134;52.020;4.714;2024-02-21T13:50:15;7.32;;;4.32;;
22786;SDS011;63134;52.020;4.714;2024-02-21T13:53:01;10.57;;;5.07;;
22786;SDS011;63134;52.020;4.714;2024-02-21T13:55:47;11.13;;;4.43;;
22786;SDS011;63134;52.020;4.714;2024-02-21T13:58:33;9.35;;;4.57;;
22786;SDS011;63134;52.020;4.714;2024-02-21T14:01:18;12.00;;;4.38;;
22786;SDS011;63134;52.020;4.714;2024-02-21T14:04:04;8.55;;;5.55;;
22786;SDS011;63134;52.020;4.714;2024-02-21T14:06:49;7.45;;;4.85;;
22786;SDS011;63134;52.020;4.714;2024-02-21T14:09:35;9.27;;;5.05;;
22786;SDS011;63134;52.020;4.714;2024-02-21T14:12:21;9.90;;;5.15;;
22786;SDS011;63134;52.020;4.714;2024-02-21T14:15:07;9.80;;;5.28;;
22786;SDS011;63134;52.020;4.714;2024-02-21T14:17:53;11.55;;;5.45;;
22786;SDS011;63134;52.020;4.714;2024-02-21T14:20:40;9.00;;;4.88;;
22786;SDS011;63134;52.020;4.714;2024-02-21T14:23:26;9.50;;;5.28;;
22786;SDS011;63134;52.020;4.714;2024-02-21T14:26:11;9.32;;;5.00;;
22786;SDS011;63134;52.020;4.714;2024-02-21T14:28:57;8.80;;;4.90;;
22786;SDS011;63134;52.020;4.714;2024-02-21T14:31:43;8.57;;;4.47;;
22786;SDS011;63134;52.020;4.714;2024-02-21T14:34:29;9.88;;;5.15;;
22786;SDS011;63134;52.020;4.714;2024-02-21T14:37:14;9.88;;;5.35;;
22786;SDS011;63134;52.020;4.714;2024-02-21T14:40:00;7.47;;;4.82;;
22786;SDS011;63134;52.020;4.714;2024-02-21T14:42:46;10.23;;;5.80;;
22786;SDS011;63134;52.020;4.714;2024-02-21T14:45:31;7.25;;;5.03;;
22786;SDS011;63134;52.020;4.714;2024-02-21T14:48:17;10.60;;;5.10;;
22786;SDS011;63134;52.020;4.714;2024-02-21T14:51:03;9.48;;;5.50;;
22786;SDS011;63134;52.020;4.714;2024-02-21T14:53:48;9.40;;;5.90;;
22786;SDS011;63134;52.020;4.714;2024-02-21T14:56:34;11.30;;;5.78;;
22786;SDS011;63134;52.020;4.714;2024-02-21T14:59:20;10.25;;;5.85;;
22786;SDS011;63134;52.020;4.714;2024-02-21T15:02:18;11.85;;;7.00;;
22786;SDS011;63134;52.020;4.714;2024-02-21T15:05:03;9.68;;;6.18;;
22786;SDS011;63134;52.020;4.714;2024-02-21T15:07:50;8.25;;;5.70;;
22786;SDS011;63134;52.020;4.714;2024-02-21T15:10:37;7.05;;;5.40;;
22786;SDS011;63134;52.020;4.714;2024-02-21T15:13:23;8.23;;;5.53;;
22786;SDS011;63134;52.020;4.714;2024-02-21T15:16:09;8.95;;;5.78;;
22786;SDS011;63134;52.020;4.714;2024-02-21T15:18:54;9.45;;;5.55;;
22786;SDS011;63134;52.020;4.714;2024-02-21T15:21:39;10.10;;;5.35;;
22786;SDS011;63134;52.020;4.714;2024-02-21T15:24:25;9.57;;;5.05;;
22786;SDS011;63134;52.020;4.714;2024-02-21T15:27:10;12.25;;;5.60;;
22786;SDS011;63134;52.020;4.714;2024-02-21T15:29:56;11.05;;;5.63;;
22786;SDS011;63134;52.020;4.714;2024-02-21T15:32:44;8.75;;;5.43;;
22786;SDS011;63134;52.020;4.714;2024-02-21T15:35:30;14.75;;;6.13;;
22786;SDS011;63134;52.020;4.714;2024-02-21T15:38:16;9.50;;;5.25;;
22786;SDS011;63134;52.020;4.714;2024-02-21T15:41:01;13.35;;;5.70;;
22786;SDS011;63134;52.020;4.714;2024-02-21T15:43:47;13.07;;;6.82;;
22786;SDS011;63134;52.020;4.714;2024-02-21T15:46:32;11.60;;;6.25;;
22786;SDS011;63134;52.020;4.714;2024-02-21T15:49:21;10.93;;;6.32;;
22786;SDS011;63134;52.020;4.714;2024-02-21T15:52:07;12.10;;;6.97;;
22786;SDS011;63134;52.020;4.714;2024-02-21T15:54:53;12.18;;;7.22;;
22786;SDS011;63134;52.020;4.714;2024-02-21T15:57:38;10.68;;;6.80;;
22786;SDS011;63134;52.020;4.714;2024-02-21T16:00:24;10.57;;;6.70;;
22786;SDS011;63134;52.020;4.714;2024-02-21T16:03:09;13.20;;;7.22;;
22786;SDS011;63134;52.020;4.714;2024-02-21T16:05:55;14.88;;;7.75;;
22786;SDS011;63134;52.020;4.714;2024-02-21T16:08:41;12.57;;;7.70;;
22786;SDS011;63134;52.020;4.714;2024-02-21T16:11:26;12.20;;;7.28;;
22786;SDS011;63134;52.020;4.714;2024-02-21T16:14:12;11.90;;;7.00;;
22786;SDS011;63134;52.020;4.714;2024-02-21T16:16:58;9.82;;;7.22;;
22786;SDS011;63134;52.020;4.714;2024-02-21T16:19:45;11.30;;;7.68;;
22786;SDS011;63134;52.020;4.714;2024-02-21T16:22:32;13.20;;;6.97;;
22786;SDS011;63134;52.020;4.714;2024-02-21T16:25:17;14.43;;;7.90;;
22786;SDS011;63134;52.020;4.714;2024-02-21T16:28:03;13.85;;;8.10;;
22786;SDS011;63134;52.020;4.714;2024-02-21T16:30:49;11.13;;;7.55;;
22786;SDS011;63134;52.020;4.714;2024-02-21T16:33:35;11.77;;;7.30;;